Qomsheh, Iran
Current Conditions -  °F | °C
As of 1:00 AM on Thursday 29 Jan 2015 (Local Time) from OIFM Reporting Station
Haze Haze  
Wind Chill: 41°   Ceiling: Unl
Heat Index: 41°   Visibility: 2.5mi
Dew Point: 23°   Wind: 0mph
Humidity: 49%   Direction: NA
Pressure: 29.97"   Gusts: NA
Location:  32.01°N, 51.86°E
Report Text: OIFM 282200Z 00000KT 4000 HZ NSC 05/M05 Q1015 A2999
Loading
Personal Weather Stations






























Interactive Weather Map New forecast layout! Learn more

10-Day Weather Forecast

Advertisements
Track Severe Weather on mobile